sensor_id;sensor_type;location;lat;lon;timestamp;P1;durP1;ratioP1;P2;durP2;ratioP2
26474;SDS011;14161;52.270;10.334;2023-04-06T00:00:47;6.35;;;3.55;;
26474;SDS011;14161;52.270;10.334;2023-04-06T00:03:13;5.00;;;3.45;;
26474;SDS011;14161;52.270;10.334;2023-04-06T00:05:38;5.43;;;3.53;;
26474;SDS011;14161;52.270;10.334;2023-04-06T00:08:04;5.10;;;3.55;;
26474;SDS011;14161;52.270;10.334;2023-04-06T00:10:30;5.15;;;3.55;;
26474;SDS011;14161;52.270;10.334;2023-04-06T00:12:55;8.43;;;4.07;;
26474;SDS011;14161;52.270;10.334;2023-04-06T00:15:22;5.68;;;3.67;;
26474;SDS011;14161;52.270;10.334;2023-04-06T00:17:48;6.78;;;3.80;;
26474;SDS011;14161;52.270;10.334;2023-04-06T00:20:13;6.65;;;3.45;;
26474;SDS011;14161;52.270;10.334;2023-04-06T00:22:39;6.80;;;3.85;;
26474;SDS011;14161;52.270;10.334;2023-04-06T00:25:05;5.35;;;3.38;;
26474;SDS011;14161;52.270;10.334;2023-04-06T00:27:31;8.75;;;3.80;;
26474;SDS011;14161;52.270;10.334;2023-04-06T00:29:56;7.45;;;3.92;;
26474;SDS011;14161;52.270;10.334;2023-04-06T00:32:22;5.82;;;3.83;;
26474;SDS011;14161;52.270;10.334;2023-04-06T00:34:48;5.88;;;3.30;;
26474;SDS011;14161;52.270;10.334;2023-04-06T00:37:14;5.72;;;3.33;;
26474;SDS011;14161;52.270;10.334;2023-04-06T00:39:39;3.72;;;2.95;;
26474;SDS011;14161;52.270;10.334;2023-04-06T00:42:11;7.05;;;3.78;;
26474;SDS011;14161;52.270;10.334;2023-04-06T00:44:40;5.03;;;3.33;;
26474;SDS011;14161;52.270;10.334;2023-04-06T00:47:06;5.93;;;3.80;;
26474;SDS011;14161;52.270;10.334;2023-04-06T00:49:33;4.53;;;3.35;;
26474;SDS011;14161;52.270;10.334;2023-04-06T00:51:59;6.05;;;3.55;;
26474;SDS011;14161;52.270;10.334;2023-04-06T00:54:25;6.53;;;3.17;;
26474;SDS011;14161;52.270;10.334;2023-04-06T00:56:50;4.53;;;2.90;;
26474;SDS011;14161;52.270;10.334;2023-04-06T00:59:16;4.18;;;2.90;;
26474;SDS011;14161;52.270;10.334;2023-04-06T01:01:42;4.65;;;2.85;;
26474;SDS011;14161;52.270;10.334;2023-04-06T01:04:22;4.60;;;2.92;;
26474;SDS011;14161;52.270;10.334;2023-04-06T01:06:48;4.47;;;2.80;;
26474;SDS011;14161;52.270;10.334;2023-04-06T01:09:15;4.00;;;2.70;;
26474;SDS011;14161;52.270;10.334;2023-04-06T01:11:41;3.40;;;2.80;;
26474;SDS011;14161;52.270;10.334;2023-04-06T01:14:10;5.63;;;2.80;;
26474;SDS011;14161;52.270;10.334;2023-04-06T01:16:49;4.32;;;2.85;;
26474;SDS011;14161;52.270;10.334;2023-04-06T01:19:18;4.07;;;2.53;;
26474;SDS011;14161;52.270;10.334;2023-04-06T01:21:47;7.35;;;3.38;;
26474;SDS011;14161;52.270;10.334;2023-04-06T01:24:34;4.93;;;2.92;;
26474;SDS011;14161;52.270;10.334;2023-04-06T01:27:02;4.13;;;2.80;;
26474;SDS011;14161;52.270;10.334;2023-04-06T01:29:37;6.97;;;2.72;;
26474;SDS011;14161;52.270;10.334;2023-04-06T01:32:05;4.95;;;2.90;;
26474;SDS011;14161;52.270;10.334;2023-04-06T01:34:35;4.15;;;3.03;;
26474;SDS011;14161;52.270;10.334;2023-04-06T01:37:03;4.63;;;2.90;;
26474;SDS011;14161;52.270;10.334;2023-04-06T01:39:30;5.13;;;2.83;;
26474;SDS011;14161;52.270;10.334;2023-04-06T01:41:56;3.97;;;2.75;;
26474;SDS011;14161;52.270;10.334;2023-04-06T01:44:21;4.85;;;2.60;;
26474;SDS011;14161;52.270;10.334;2023-04-06T01:46:54;6.00;;;2.80;;
26474;SDS011;14161;52.270;10.334;2023-04-06T01:49:21;4.13;;;2.95;;
26474;SDS011;14161;52.270;10.334;2023-04-06T01:51:52;4.65;;;2.88;;
26474;SDS011;14161;52.270;10.334;2023-04-06T01:54:19;3.60;;;2.65;;
26474;SDS011;14161;52.270;10.334;2023-04-06T01:56:57;3.58;;;2.33;;
26474;SDS011;14161;52.270;10.334;2023-04-06T01:59:32;5.70;;;3.15;;
26474;SDS011;14161;52.270;10.334;2023-04-06T02:02:01;5.28;;;3.40;;
26474;SDS011;14161;52.270;10.334;2023-04-06T02:04:28;5.70;;;3.38;;
26474;SDS011;14161;52.270;10.334;2023-04-06T02:07:04;5.88;;;3.35;;
26474;SDS011;14161;52.270;10.334;2023-04-06T02:09:30;5.32;;;3.20;;
26474;SDS011;14161;52.270;10.334;2023-04-06T02:11:55;4.97;;;2.97;;
26474;SDS011;14161;52.270;10.334;2023-04-06T02:14:23;5.05;;;3.20;;
26474;SDS011;14161;52.270;10.334;2023-04-06T02:16:55;6.00;;;3.27;;
26474;SDS011;14161;52.270;10.334;2023-04-06T02:19:21;4.38;;;2.75;;
26474;SDS011;14161;52.270;10.334;2023-04-06T02:21:47;5.63;;;3.13;;
26474;SDS011;14161;52.270;10.334;2023-04-06T02:24:13;5.00;;;3.05;;
26474;SDS011;14161;52.270;10.334;2023-04-06T02:26:38;4.35;;;3.22;;
26474;SDS011;14161;52.270;10.334;2023-04-06T02:29:04;4.65;;;3.10;;
26474;SDS011;14161;52.270;10.334;2023-04-06T02:31:31;3.50;;;2.70;;
26474;SDS011;14161;52.270;10.334;2023-04-06T02:33:58;4.57;;;2.50;;
26474;SDS011;14161;52.270;10.334;2023-04-06T02:36:24;6.22;;;2.70;;
26474;SDS011;14161;52.270;10.334;2023-04-06T02:38:51;5.78;;;2.80;;
26474;SDS011;14161;52.270;10.334;2023-04-06T02:41:16;5.18;;;2.83;;
26474;SDS011;14161;52.270;10.334;2023-04-06T02:43:43;5.53;;;2.65;;
26474;SDS011;14161;52.270;10.334;2023-04-06T02:46:16;4.45;;;2.83;;
26474;SDS011;14161;52.270;10.334;2023-04-06T02:48:41;4.18;;;2.53;;
26474;SDS011;14161;52.270;10.334;2023-04-06T02:51:07;4.07;;;3.03;;
26474;SDS011;14161;52.270;10.334;2023-04-06T02:53:33;4.18;;;2.63;;
26474;SDS011;14161;52.270;10.334;2023-04-06T02:55:59;4.18;;;2.70;;
26474;SDS011;14161;52.270;10.334;2023-04-06T02:58:32;3.88;;;2.53;;
26474;SDS011;14161;52.270;10.334;2023-04-06T03:00:58;4.93;;;2.58;;
26474;SDS011;14161;52.270;10.334;2023-04-06T03:03:23;3.47;;;2.45;;
26474;SDS011;14161;52.270;10.334;2023-04-06T03:05:49;5.97;;;2.58;;
26474;SDS011;14161;52.270;10.334;2023-04-06T03:08:22;4.85;;;2.53;;
26474;SDS011;14161;52.270;10.334;2023-04-06T03:10:49;6.90;;;2.80;;
26474;SDS011;14161;52.270;10.334;2023-04-06T03:13:16;6.38;;;2.80;;
26474;SDS011;14161;52.270;10.334;2023-04-06T03:15:53;3.33;;;2.55;;
26474;SDS011;14161;52.270;10.334;2023-04-06T03:18:21;4.97;;;2.65;;
26474;SDS011;14161;52.270;10.334;2023-04-06T03:20:48;3.60;;;2.55;;
26474;SDS011;14161;52.270;10.334;2023-04-06T03:23:16;4.47;;;2.88;;
26474;SDS011;14161;52.270;10.334;2023-04-06T03:25:43;5.28;;;2.95;;
26474;SDS011;14161;52.270;10.334;2023-04-06T03:28:13;5.88;;;2.92;;
26474;SDS011;14161;52.270;10.334;2023-04-06T03:30:49;5.65;;;3.80;;
26474;SDS011;14161;52.270;10.334;2023-04-06T03:33:20;6.22;;;3.55;;
26474;SDS011;14161;52.270;10.334;2023-04-06T03:35:53;6.53;;;4.00;;
26474;SDS011;14161;52.270;10.334;2023-04-06T03:38:19;7.50;;;3.95;;
26474;SDS011;14161;52.270;10.334;2023-04-06T03:40:44;5.55;;;3.50;;
26474;SDS011;14161;52.270;10.334;2023-04-06T03:43:10;5.78;;;3.35;;
26474;SDS011;14161;52.270;10.334;2023-04-06T03:45:37;4.68;;;3.05;;
26474;SDS011;14161;52.270;10.334;2023-04-06T03:48:03;5.38;;;3.03;;
26474;SDS011;14161;52.270;10.334;2023-04-06T03:50:32;3.63;;;2.38;;
26474;SDS011;14161;52.270;10.334;2023-04-06T03:52:58;5.10;;;3.30;;
26474;SDS011;14161;52.270;10.334;2023-04-06T03:55:23;4.85;;;3.00;;
26474;SDS011;14161;52.270;10.334;2023-04-06T03:57:49;4.75;;;2.70;;
26474;SDS011;14161;52.270;10.334;2023-04-06T04:00:14;4.50;;;2.63;;
26474;SDS011;14161;52.270;10.334;2023-04-06T04:02:40;3.40;;;2.60;;
26474;SDS011;14161;52.270;10.334;2023-04-06T04:05:05;7.18;;;2.65;;
26474;SDS011;14161;52.270;10.334;2023-04-06T04:07:31;3.00;;;2.60;;
26474;SDS011;14161;52.270;10.334;2023-04-06T04:09:57;4.88;;;2.72;;
26474;SDS011;14161;52.270;10.334;2023-04-06T04:12:22;4.25;;;2.95;;
26474;SDS011;14161;52.270;10.334;2023-04-06T04:14:48;3.85;;;2.97;;
26474;SDS011;14161;52.270;10.334;2023-04-06T04:17:13;4.10;;;2.65;;
26474;SDS011;14161;52.270;10.334;2023-04-06T04:19:39;5.68;;;2.85;;
26474;SDS011;14161;52.270;10.334;2023-04-06T04:22:04;3.65;;;2.70;;
26474;SDS011;14161;52.270;10.334;2023-04-06T04:24:34;5.30;;;3.65;;
26474;SDS011;14161;52.270;10.334;2023-04-06T04:27:00;4.07;;;2.97;;
26474;SDS011;14161;52.270;10.334;2023-04-06T04:29:28;4.10;;;3.05;;
26474;SDS011;14161;52.270;10.334;2023-04-06T04:31:56;5.78;;;3.72;;
26474;SDS011;14161;52.270;10.334;2023-04-06T04:34:21;6.22;;;3.67;;
26474;SDS011;14161;52.270;10.334;2023-04-06T04:36:50;4.70;;;3.20;;
26474;SDS011;14161;52.270;10.334;2023-04-06T04:39:23;4.77;;;3.13;;
26474;SDS011;14161;52.270;10.334;2023-04-06T04:41:56;4.63;;;2.90;;
26474;SDS011;14161;52.270;10.334;2023-04-06T04:44:22;7.43;;;3.30;;
26474;SDS011;14161;52.270;10.334;2023-04-06T04:46:48;5.70;;;3.40;;
26474;SDS011;14161;52.270;10.334;2023-04-06T04:49:16;5.47;;;4.03;;
26474;SDS011;14161;52.270;10.334;2023-04-06T04:51:42;5.03;;;3.33;;
26474;SDS011;14161;52.270;10.334;2023-04-06T04:54:12;4.03;;;3.22;;
26474;SDS011;14161;52.270;10.334;2023-04-06T04:56:39;4.55;;;3.20;;
26474;SDS011;14161;52.270;10.334;2023-04-06T04:59:27;5.50;;;3.60;;
26474;SDS011;14161;52.270;10.334;2023-04-06T05:01:59;4.88;;;3.67;;
26474;SDS011;14161;52.270;10.334;2023-04-06T05:04:35;3.88;;;3.33;;
26474;SDS011;14161;52.270;10.334;2023-04-06T05:07:06;7.47;;;3.58;;
26474;SDS011;14161;52.270;10.334;2023-04-06T05:09:33;3.85;;;3.20;;
26474;SDS011;14161;52.270;10.334;2023-04-06T05:11:59;6.22;;;3.20;;
26474;SDS011;14161;52.270;10.334;2023-04-06T05:14:26;4.63;;;2.90;;
26474;SDS011;14161;52.270;10.334;2023-04-06T05:16:53;4.53;;;3.33;;
26474;SDS011;14161;52.270;10.334;2023-04-06T05:19:21;4.63;;;2.78;;
26474;SDS011;14161;52.270;10.334;2023-04-06T05:21:47;4.73;;;3.40;;
26474;SDS011;14161;52.270;10.334;2023-04-06T05:24:12;4.57;;;3.53;;
26474;SDS011;14161;52.270;10.334;2023-04-06T05:26:39;4.47;;;3.60;;
26474;SDS011;14161;52.270;10.334;2023-04-06T05:29:11;4.90;;;3.30;;
26474;SDS011;14161;52.270;10.334;2023-04-06T05:31:37;5.57;;;3.35;;
26474;SDS011;14161;52.270;10.334;2023-04-06T05:34:02;5.65;;;3.92;;
26474;SDS011;14161;52.270;10.334;2023-04-06T05:36:32;5.18;;;3.97;;
26474;SDS011;14161;52.270;10.334;2023-04-06T05:39:01;6.70;;;3.60;;
26474;SDS011;14161;52.270;10.334;2023-04-06T05:41:50;4.82;;;3.28;;
26474;SDS011;14161;52.270;10.334;2023-04-06T05:44:24;4.80;;;3.30;;
26474;SDS011;14161;52.270;10.334;2023-04-06T05:46:59;4.93;;;3.65;;
26474;SDS011;14161;52.270;10.334;2023-04-06T05:49:26;5.00;;;3.53;;
26474;SDS011;14161;52.270;10.334;2023-04-06T05:51:52;7.10;;;3.72;;
26474;SDS011;14161;52.270;10.334;2023-04-06T05:54:17;4.32;;;3.47;;
26474;SDS011;14161;52.270;10.334;2023-04-06T05:56:43;4.30;;;3.25;;
26474;SDS011;14161;52.270;10.334;2023-04-06T05:59:10;5.85;;;3.72;;
26474;SDS011;14161;52.270;10.334;2023-04-06T06:01:36;6.10;;;3.78;;
26474;SDS011;14161;52.270;10.334;2023-04-06T06:04:01;7.30;;;3.90;;
26474;SDS011;14161;52.270;10.334;2023-04-06T06:06:30;6.93;;;4.10;;
26474;SDS011;14161;52.270;10.334;2023-04-06T06:09:08;4.57;;;3.35;;
26474;SDS011;14161;52.270;10.334;2023-04-06T06:11:40;4.43;;;3.88;;
26474;SDS011;14161;52.270;10.334;2023-04-06T06:14:05;5.30;;;4.07;;
26474;SDS011;14161;52.270;10.334;2023-04-06T06:16:34;5.80;;;3.78;;
26474;SDS011;14161;52.270;10.334;2023-04-06T06:19:00;6.70;;;4.18;;
26474;SDS011;14161;52.270;10.334;2023-04-06T06:21:26;5.85;;;4.28;;
26474;SDS011;14161;52.270;10.334;2023-04-06T06:23:51;5.80;;;3.88;;
26474;SDS011;14161;52.270;10.334;2023-04-06T06:26:19;6.10;;;4.13;;
26474;SDS011;14161;52.270;10.334;2023-04-06T06:28:45;5.78;;;3.85;;
26474;SDS011;14161;52.270;10.334;2023-04-06T06:31:12;6.25;;;3.95;;
26474;SDS011;14161;52.270;10.334;2023-04-06T06:33:39;6.38;;;4.00;;
26474;SDS011;14161;52.270;10.334;2023-04-06T06:36:04;5.88;;;4.05;;
26474;SDS011;14161;52.270;10.334;2023-04-06T06:38:30;5.40;;;4.45;;
26474;SDS011;14161;52.270;10.334;2023-04-06T06:40:55;4.32;;;3.60;;
26474;SDS011;14161;52.270;10.334;2023-04-06T06:43:24;4.57;;;3.55;;
26474;SDS011;14161;52.270;10.334;2023-04-06T06:45:55;4.10;;;3.53;;
26474;SDS011;14161;52.270;10.334;2023-04-06T06:48:21;7.20;;;4.57;;
26474;SDS011;14161;52.270;10.334;2023-04-06T06:50:49;7.35;;;4.43;;
26474;SDS011;14161;52.270;10.334;2023-04-06T06:53:15;6.30;;;4.60;;
26474;SDS011;14161;52.270;10.334;2023-04-06T06:55:40;5.72;;;4.28;;
26474;SDS011;14161;52.270;10.334;2023-04-06T06:58:07;7.32;;;4.30;;
26474;SDS011;14161;52.270;10.334;2023-04-06T07:00:33;6.68;;;4.57;;
26474;SDS011;14161;52.270;10.334;2023-04-06T07:02:59;4.85;;;4.13;;
26474;SDS011;14161;52.270;10.334;2023-04-06T07:05:25;5.65;;;4.57;;
26474;SDS011;14161;52.270;10.334;2023-04-06T07:07:51;5.13;;;4.30;;
26474;SDS011;14161;52.270;10.334;2023-04-06T07:10:16;5.80;;;4.57;;
26474;SDS011;14161;52.270;10.334;2023-04-06T07:12:42;5.90;;;4.32;;
26474;SDS011;14161;52.270;10.334;2023-04-06T07:15:07;6.38;;;4.70;;
26474;SDS011;14161;52.270;10.334;2023-04-06T07:17:33;4.85;;;3.83;;
26474;SDS011;14161;52.270;10.334;2023-04-06T07:19:59;5.70;;;4.43;;
26474;SDS011;14161;52.270;10.334;2023-04-06T07:22:25;6.97;;;4.88;;
26474;SDS011;14161;52.270;10.334;2023-04-06T07:24:51;6.05;;;4.43;;
26474;SDS011;14161;52.270;10.334;2023-04-06T07:27:16;4.55;;;3.75;;
26474;SDS011;14161;52.270;10.334;2023-04-06T07:29:44;5.43;;;4.45;;
26474;SDS011;14161;52.270;10.334;2023-04-06T07:32:09;6.47;;;4.55;;
26474;SDS011;14161;52.270;10.334;2023-04-06T07:34:36;6.80;;;4.25;;
26474;SDS011;14161;52.270;10.334;2023-04-06T07:37:01;5.88;;;3.67;;
26474;SDS011;14161;52.270;10.334;2023-04-06T07:39:28;6.15;;;4.75;;
26474;SDS011;14161;52.270;10.334;2023-04-06T07:41:55;5.97;;;4.72;;
26474;SDS011;14161;52.270;10.334;2023-04-06T07:44:20;6.85;;;4.63;;
26474;SDS011;14161;52.270;10.334;2023-04-06T07:46:47;5.97;;;4.30;;
26474;SDS011;14161;52.270;10.334;2023-04-06T07:49:13;5.18;;;4.25;;
26474;SDS011;14161;52.270;10.334;2023-04-06T07:51:39;6.72;;;4.85;;
26474;SDS011;14161;52.270;10.334;2023-04-06T07:54:05;7.50;;;4.85;;
26474;SDS011;14161;52.270;10.334;2023-04-06T07:56:30;5.65;;;4.03;;
26474;SDS011;14161;52.270;10.334;2023-04-06T07:58:56;4.45;;;3.63;;
26474;SDS011;14161;52.270;10.334;2023-04-06T08:01:23;6.53;;;3.97;;
26474;SDS011;14161;52.270;10.334;2023-04-06T08:03:48;4.38;;;3.38;;
26474;SDS011;14161;52.270;10.334;2023-04-06T08:06:15;4.97;;;3.75;;
26474;SDS011;14161;52.270;10.334;2023-04-06T08:08:41;6.93;;;4.07;;
26474;SDS011;14161;52.270;10.334;2023-04-06T08:11:07;7.28;;;4.32;;
26474;SDS011;14161;52.270;10.334;2023-04-06T08:13:33;5.50;;;3.90;;
26474;SDS011;14161;52.270;10.334;2023-04-06T08:15:59;4.43;;;3.63;;
26474;SDS011;14161;52.270;10.334;2023-04-06T08:18:25;7.82;;;4.20;;
26474;SDS011;14161;52.270;10.334;2023-04-06T08:20:50;6.45;;;3.72;;
26474;SDS011;14161;52.270;10.334;2023-04-06T08:23:16;5.03;;;3.60;;
26474;SDS011;14161;52.270;10.334;2023-04-06T08:25:41;5.43;;;4.18;;
26474;SDS011;14161;52.270;10.334;2023-04-06T08:28:07;5.22;;;4.03;;
26474;SDS011;14161;52.270;10.334;2023-04-06T08:30:34;6.32;;;3.80;;
26474;SDS011;14161;52.270;10.334;2023-04-06T08:33:00;5.13;;;3.67;;
26474;SDS011;14161;52.270;10.334;2023-04-06T08:35:26;6.03;;;3.72;;
26474;SDS011;14161;52.270;10.334;2023-04-06T08:37:52;5.63;;;3.58;;
26474;SDS011;14161;52.270;10.334;2023-04-06T08:40:17;5.28;;;3.88;;
26474;SDS011;14161;52.270;10.334;2023-04-06T08:42:50;4.38;;;3.80;;
26474;SDS011;14161;52.270;10.334;2023-04-06T08:45:20;4.28;;;3.70;;
26474;SDS011;14161;52.270;10.334;2023-04-06T08:47:55;5.63;;;4.13;;
26474;SDS011;14161;52.270;10.334;2023-04-06T08:50:24;5.68;;;3.72;;
26474;SDS011;14161;52.270;10.334;2023-04-06T08:52:49;5.07;;;3.83;;
26474;SDS011;14161;52.270;10.334;2023-04-06T08:55:15;6.60;;;4.43;;
26474;SDS011;14161;52.270;10.334;2023-04-06T08:57:41;4.95;;;3.78;;
26474;SDS011;14161;52.270;10.334;2023-04-06T09:00:07;6.07;;;4.20;;
26474;SDS011;14161;52.270;10.334;2023-04-06T09:02:36;6.05;;;4.43;;
26474;SDS011;14161;52.270;10.334;2023-04-06T09:05:04;5.00;;;3.90;;
26474;SDS011;14161;52.270;10.334;2023-04-06T09:07:29;7.95;;;4.20;;
26474;SDS011;14161;52.270;10.334;2023-04-06T09:09:56;5.72;;;4.10;;
26474;SDS011;14161;52.270;10.334;2023-04-06T09:12:22;5.18;;;4.10;;
26474;SDS011;14161;52.270;10.334;2023-04-06T09:14:48;5.20;;;4.07;;
26474;SDS011;14161;52.270;10.334;2023-04-06T09:17:20;5.05;;;3.72;;
26474;SDS011;14161;52.270;10.334;2023-04-06T09:19:47;5.15;;;4.00;;
26474;SDS011;14161;52.270;10.334;2023-04-06T09:22:13;5.43;;;3.80;;
26474;SDS011;14161;52.270;10.334;2023-04-06T09:24:45;8.85;;;4.25;;
26474;SDS011;14161;52.270;10.334;2023-04-06T09:27:12;5.15;;;3.97;;
26474;SDS011;14161;52.270;10.334;2023-04-06T09:29:38;7.78;;;3.80;;
26474;SDS011;14161;52.270;10.334;2023-04-06T09:32:04;5.38;;;3.97;;
26474;SDS011;14161;52.270;10.334;2023-04-06T09:34:30;6.25;;;4.32;;
26474;SDS011;14161;52.270;10.334;2023-04-06T09:36:56;5.32;;;4.13;;
26474;SDS011;14161;52.270;10.334;2023-04-06T09:39:22;9.05;;;5.22;;
26474;SDS011;14161;52.270;10.334;2023-04-06T09:41:51;7.88;;;5.00;;
26474;SDS011;14161;52.270;10.334;2023-04-06T09:44:17;5.07;;;3.90;;
26474;SDS011;14161;52.270;10.334;2023-04-06T09:46:44;10.05;;;5.32;;
26474;SDS011;14161;52.270;10.334;2023-04-06T09:49:10;7.30;;;4.68;;
26474;SDS011;14161;52.270;10.334;2023-04-06T09:51:37;6.47;;;4.47;;
26474;SDS011;14161;52.270;10.334;2023-04-06T09:54:04;5.57;;;4.03;;
26474;SDS011;14161;52.270;10.334;2023-04-06T09:56:33;6.53;;;4.47;;
26474;SDS011;14161;52.270;10.334;2023-04-06T09:59:05;6.88;;;4.57;;
26474;SDS011;14161;52.270;10.334;2023-04-06T10:01:34;9.00;;;4.70;;
26474;SDS011;14161;52.270;10.334;2023-04-06T10:06:31;7.25;;;4.00;;
26474;SDS011;14161;52.270;10.334;2023-04-06T10:08:58;5.72;;;3.88;;
26474;SDS011;14161;52.270;10.334;2023-04-06T10:11:24;6.00;;;4.05;;
26474;SDS011;14161;52.270;10.334;2023-04-06T10:13:50;5.93;;;3.78;;
26474;SDS011;14161;52.270;10.334;2023-04-06T10:16:15;6.60;;;4.15;;
26474;SDS011;14161;52.270;10.334;2023-04-06T10:18:43;5.65;;;4.10;;
26474;SDS011;14161;52.270;10.334;2023-04-06T10:21:12;5.63;;;3.90;;
26474;SDS011;14161;52.270;10.334;2023-04-06T10:23:41;4.53;;;3.65;;
26474;SDS011;14161;52.270;10.334;2023-04-06T10:26:27;7.40;;;4.28;;
26474;SDS011;14161;52.270;10.334;2023-04-06T10:28:53;5.07;;;3.97;;
26474;SDS011;14161;52.270;10.334;2023-04-06T10:31:26;4.93;;;3.85;;
26474;SDS011;14161;52.270;10.334;2023-04-06T10:33:59;5.88;;;3.72;;
26474;SDS011;14161;52.270;10.334;2023-04-06T10:36:26;5.57;;;4.07;;
26474;SDS011;14161;52.270;10.334;2023-04-06T10:38:57;5.13;;;3.88;;
26474;SDS011;14161;52.270;10.334;2023-04-06T10:41:24;5.28;;;3.80;;
26474;SDS011;14161;52.270;10.334;2023-04-06T10:43:57;5.93;;;4.55;;
26474;SDS011;14161;52.270;10.334;2023-04-06T10:46:26;5.55;;;4.05;;
26474;SDS011;14161;52.270;10.334;2023-04-06T10:48:54;5.28;;;4.03;;
26474;SDS011;14161;52.270;10.334;2023-04-06T10:51:24;5.57;;;3.92;;
26474;SDS011;14161;52.270;10.334;2023-04-06T10:53:52;5.45;;;4.05;;
26474;SDS011;14161;52.270;10.334;2023-04-06T10:56:20;6.78;;;4.95;;
26474;SDS011;14161;52.270;10.334;2023-04-06T10:58:51;6.30;;;4.50;;
26474;SDS011;14161;52.270;10.334;2023-04-06T11:01:18;6.13;;;4.30;;
26474;SDS011;14161;52.270;10.334;2023-04-06T11:03:48;6.68;;;3.63;;
26474;SDS011;14161;52.270;10.334;2023-04-06T11:06:19;5.45;;;4.13;;
26474;SDS011;14161;52.270;10.334;2023-04-06T11:08:45;4.60;;;3.55;;
26474;SDS011;14161;52.270;10.334;2023-04-06T11:11:11;5.78;;;4.30;;
26474;SDS011;14161;52.270;10.334;2023-04-06T11:16:15;5.72;;;4.00;;
26474;SDS011;14161;52.270;10.334;2023-04-06T11:18:54;4.93;;;3.78;;
26474;SDS011;14161;52.270;10.334;2023-04-06T11:21:37;5.18;;;4.32;;
26474;SDS011;14161;52.270;10.334;2023-04-06T11:24:08;5.78;;;4.57;;
26474;SDS011;14161;52.270;10.334;2023-04-06T11:29:21;4.35;;;3.65;;
26474;SDS011;14161;52.270;10.334;2023-04-06T11:31:48;6.13;;;4.25;;
26474;SDS011;14161;52.270;10.334;2023-04-06T11:34:19;5.93;;;3.90;;
26474;SDS011;14161;52.270;10.334;2023-04-06T11:36:46;5.57;;;3.90;;
26474;SDS011;14161;52.270;10.334;2023-04-06T11:39:22;5.88;;;4.20;;
26474;SDS011;14161;52.270;10.334;2023-04-06T11:41:52;6.05;;;4.13;;
26474;SDS011;14161;52.270;10.334;2023-04-06T11:47:00;5.28;;;3.85;;
26474;SDS011;14161;52.270;10.334;2023-04-06T11:49:27;4.30;;;3.75;;
26474;SDS011;14161;52.270;10.334;2023-04-06T11:51:53;5.97;;;4.20;;
26474;SDS011;14161;52.270;10.334;2023-04-06T11:54:29;5.20;;;3.92;;
26474;SDS011;14161;52.270;10.334;2023-04-06T11:56:58;9.20;;;4.28;;
26474;SDS011;14161;52.270;10.334;2023-04-06T11:59:24;4.80;;;3.85;;
26474;SDS011;14161;52.270;10.334;2023-04-06T12:01:49;4.80;;;3.90;;
26474;SDS011;14161;52.270;10.334;2023-04-06T12:04:15;6.97;;;4.40;;
26474;SDS011;14161;52.270;10.334;2023-04-06T12:06:42;6.00;;;3.97;;
26474;SDS011;14161;52.270;10.334;2023-04-06T12:09:08;4.68;;;4.05;;
26474;SDS011;14161;52.270;10.334;2023-04-06T12:11:33;6.85;;;4.13;;
26474;SDS011;14161;52.270;10.334;2023-04-06T12:13:59;7.65;;;4.15;;
26474;SDS011;14161;52.270;10.334;2023-04-06T12:16:26;5.82;;;3.60;;
26474;SDS011;14161;52.270;10.334;2023-04-06T12:18:52;5.25;;;3.40;;
26474;SDS011;14161;52.270;10.334;2023-04-06T12:21:17;4.75;;;4.20;;
26474;SDS011;14161;52.270;10.334;2023-04-06T12:23:43;8.40;;;4.25;;
26474;SDS011;14161;52.270;10.334;2023-04-06T12:26:08;7.05;;;4.13;;
26474;SDS011;14161;52.270;10.334;2023-04-06T12:28:34;7.10;;;3.92;;
26474;SDS011;14161;52.270;10.334;2023-04-06T12:30:59;5.75;;;4.10;;
26474;SDS011;14161;52.270;10.334;2023-04-06T12:33:25;6.05;;;3.78;;
26474;SDS011;14161;52.270;10.334;2023-04-06T12:35:50;5.07;;;4.07;;
26474;SDS011;14161;52.270;10.334;2023-04-06T12:38:16;5.43;;;3.65;;
26474;SDS011;14161;52.270;10.334;2023-04-06T12:40:42;4.68;;;3.85;;
26474;SDS011;14161;52.270;10.334;2023-04-06T12:43:07;6.30;;;3.88;;
26474;SDS011;14161;52.270;10.334;2023-04-06T12:45:34;6.45;;;3.97;;
26474;SDS011;14161;52.270;10.334;2023-04-06T12:47:59;6.78;;;4.13;;
26474;SDS011;14161;52.270;10.334;2023-04-06T12:50:25;6.13;;;4.15;;
26474;SDS011;14161;52.270;10.334;2023-04-06T12:52:51;4.30;;;3.88;;
26474;SDS011;14161;52.270;10.334;2023-04-06T12:55:17;5.30;;;3.67;;
26474;SDS011;14161;52.270;10.334;2023-04-06T12:57:42;5.05;;;3.97;;
26474;SDS011;14161;52.270;10.334;2023-04-06T13:00:08;5.30;;;4.07;;
26474;SDS011;14161;52.270;10.334;2023-04-06T13:02:33;4.80;;;3.72;;
26474;SDS011;14161;52.270;10.334;2023-04-06T13:04:59;4.30;;;3.90;;
26474;SDS011;14161;52.270;10.334;2023-04-06T13:07:25;5.15;;;3.80;;
26474;SDS011;14161;52.270;10.334;2023-04-06T13:09:51;5.43;;;3.90;;
26474;SDS011;14161;52.270;10.334;2023-04-06T13:12:16;4.20;;;3.75;;
26474;SDS011;14161;52.270;10.334;2023-04-06T13:14:42;6.22;;;3.88;;
26474;SDS011;14161;52.270;10.334;2023-04-06T13:17:08;4.13;;;3.53;;
26474;SDS011;14161;52.270;10.334;2023-04-06T13:19:33;5.03;;;3.60;;
26474;SDS011;14161;52.270;10.334;2023-04-06T13:21:59;6.70;;;4.45;;
26474;SDS011;14161;52.270;10.334;2023-04-06T13:24:25;5.50;;;4.10;;
26474;SDS011;14161;52.270;10.334;2023-04-06T13:26:50;4.97;;;3.72;;
26474;SDS011;14161;52.270;10.334;2023-04-06T13:29:16;5.80;;;4.13;;
26474;SDS011;14161;52.270;10.334;2023-04-06T13:31:43;6.07;;;3.80;;
26474;SDS011;14161;52.270;10.334;2023-04-06T13:34:08;5.93;;;4.28;;
26474;SDS011;14161;52.270;10.334;2023-04-06T13:36:34;8.90;;;4.40;;
26474;SDS011;14161;52.270;10.334;2023-04-06T13:38:59;4.43;;;4.03;;
26474;SDS011;14161;52.270;10.334;2023-04-06T13:41:25;5.20;;;3.72;;
26474;SDS011;14161;52.270;10.334;2023-04-06T13:43:51;5.20;;;3.78;;
26474;SDS011;14161;52.270;10.334;2023-04-06T13:46:17;5.38;;;3.95;;
26474;SDS011;14161;52.270;10.334;2023-04-06T13:48:43;5.00;;;3.80;;
26474;SDS011;14161;52.270;10.334;2023-04-06T13:51:09;7.13;;;3.97;;
26474;SDS011;14161;52.270;10.334;2023-04-06T13:53:35;7.47;;;4.05;;
26474;SDS011;14161;52.270;10.334;2023-04-06T13:56:08;4.88;;;3.35;;
26474;SDS011;14161;52.270;10.334;2023-04-06T13:58:34;5.22;;;3.75;;
26474;SDS011;14161;52.270;10.334;2023-04-06T14:01:04;5.05;;;3.40;;
26474;SDS011;14161;52.270;10.334;2023-04-06T14:03:31;4.55;;;3.88;;
26474;SDS011;14161;52.270;10.334;2023-04-06T14:05:57;5.70;;;4.18;;
26474;SDS011;14161;52.270;10.334;2023-04-06T14:08:22;7.07;;;4.25;;
26474;SDS011;14161;52.270;10.334;2023-04-06T14:10:48;5.10;;;4.10;;
26474;SDS011;14161;52.270;10.334;2023-04-06T14:13:13;4.88;;;3.60;;
26474;SDS011;14161;52.270;10.334;2023-04-06T14:15:39;4.90;;;3.78;;
26474;SDS011;14161;52.270;10.334;2023-04-06T14:18:04;4.25;;;3.83;;
26474;SDS011;14161;52.270;10.334;2023-04-06T14:20:31;4.38;;;3.97;;
26474;SDS011;14161;52.270;10.334;2023-04-06T14:22:57;5.25;;;3.80;;
26474;SDS011;14161;52.270;10.334;2023-04-06T14:25:25;6.45;;;3.97;;
26474;SDS011;14161;52.270;10.334;2023-04-06T14:27:51;5.13;;;3.95;;
26474;SDS011;14161;52.270;10.334;2023-04-06T14:30:16;6.00;;;3.88;;
26474;SDS011;14161;52.270;10.334;2023-04-06T14:32:42;4.82;;;4.10;;
26474;SDS011;14161;52.270;10.334;2023-04-06T14:35:07;5.10;;;4.07;;
26474;SDS011;14161;52.270;10.334;2023-04-06T14:37:33;4.85;;;3.88;;
26474;SDS011;14161;52.270;10.334;2023-04-06T14:39:59;3.60;;;3.30;;
26474;SDS011;14161;52.270;10.334;2023-04-06T14:42:24;4.22;;;3.40;;
26474;SDS011;14161;52.270;10.334;2023-04-06T14:44:50;5.75;;;3.97;;